地図

経路データ

SID SEASON NUMBER BASIN SUBBASIN NAME ISO_TIME NATURE LAT LON WMO_WIND WMO_PRES WMO_AGENCY TRACK_TYPE DIST2LAND LANDFALL IFLAG USA_AGENCY USA_ATCF_ID USA_LAT USA_LON USA_RECORD USA_STATUS USA_WIND USA_PRES USA_SSHS USA_R34_NE USA_R34_SE USA_R34_SW USA_R34_NW USA_R50_NE USA_R50_SE USA_R50_SW USA_R50_NW USA_R64_NE USA_R64_SE USA_R64_SW USA_R64_NW USA_POCI USA_ROCI USA_RMW USA_EYE TOKYO_LAT TOKYO_LON TOKYO_GRADE TOKYO_WIND TOKYO_PRES TOKYO_R50_DIR TOKYO_R50_LONG TOKYO_R50_SHORT TOKYO_R30_DIR TOKYO_R30_LONG TOKYO_R30_SHORT TOKYO_LAND CMA_LAT CMA_LON CMA_CAT CMA_WIND CMA_PRES HKO_LAT HKO_LON HKO_CAT HKO_WIND HKO_PRES NEWDELHI_LAT NEWDELHI_LON NEWDELHI_GRADE NEWDELHI_WIND NEWDELHI_PRES NEWDELHI_CI NEWDELHI_DP NEWDELHI_POCI REUNION_LAT REUNION_LON REUNION_TYPE REUNION_WIND REUNION_PRES REUNION_TNUM REUNION_CI REUNION_RMW REUNION_R34_NE REUNION_R34_SE REUNION_R34_SW REUNION_R34_NW REUNION_R50_NE REUNION_R50_SE REUNION_R50_SW REUNION_R50_NW REUNION_R64_NE REUNION_R64_SE REUNION_R64_SW REUNION_R64_NW BOM_LAT BOM_LON BOM_TYPE BOM_WIND BOM_PRES BOM_TNUM BOM_CI BOM_RMW BOM_R34_NE BOM_R34_SE BOM_R34_SW BOM_R34_NW BOM_R50_NE BOM_R50_SE BOM_R50_SW BOM_R50_NW BOM_R64_NE BOM_R64_SE BOM_R64_SW BOM_R64_NW BOM_ROCI BOM_POCI BOM_EYE BOM_POS_METHOD BOM_PRES_METHOD NADI_LAT NADI_LON NADI_CAT NADI_WIND NADI_PRES WELLINGTON_LAT WELLINGTON_LON WELLINGTON_WIND WELLINGTON_PRES DS824_LAT DS824_LON DS824_STAGE DS824_WIND DS824_PRES TD9636_LAT TD9636_LON TD9636_STAGE TD9636_WIND TD9636_PRES TD9635_LAT TD9635_LON TD9635_WIND TD9635_PRES TD9635_ROCI NEUMANN_LAT NEUMANN_LON NEUMANN_CLASS NEUMANN_WIND NEUMANN_PRES MLC_LAT MLC_LON MLC_CLASS MLC_WIND MLC_PRES USA_GUST BOM_GUST BOM_GUST_PER REUNION_GUST REUNION_GUST_PER USA_SEAHGT USA_SEARAD_NE USA_SEARAD_SE USA_SEARAD_SW USA_SEARAD_NW STORM_SPEED STORM_DIR
1916260N13118 1916 48 WP MM NOT_NAMED 1916-09-15 22:00:00 NR 13.1000 118.400 main 208 208 __________O___ -1 13.1000 118.400 3 14 284
1916260N13118 1916 48 WP MM NOT_NAMED 1916-09-16 00:00:00 NR 13.2114 117.928 main 260 260 __________P___ -1 13.2114 117.928 3 14 284
1916260N13118 1916 48 WP MM NOT_NAMED 1916-09-16 03:00:00 NR 13.3797 117.227 main 335 335 __________P___ -1 13.3797 117.227 3 14 284
1916260N13118 1916 48 WP MM NOT_NAMED 1916-09-16 06:00:00 NR 13.5531 116.548 main 410 410 __________P___ -1 13.5531 116.548 3 13 285
1916260N13118 1916 48 WP MM NOT_NAMED 1916-09-16 09:00:00 NR 13.7361 115.905 main 469 469 __________P___ -1 13.7361 115.905 3 13 287
1916260N13118 1916 48 WP MM NOT_NAMED 1916-09-16 10:00:00 NR 13.8000 115.700 main 486 486 __________O___ -1 13.8000 115.700 4 12 289
1916260N13118 1916 48 WP MM NOT_NAMED 1916-09-16 12:00:00 NR 13.9325 115.309 main 522 522 __________P___ -1 13.9325 115.309 4 12 291
1916260N13118 1916 48 WP MM NOT_NAMED 1916-09-16 15:00:00 NR 14.1381 114.772 main 567 541 __________P___ -1 14.1381 114.772 4 11 293
1916260N13118 1916 48 WP MM NOT_NAMED 1916-09-16 18:00:00 NR 14.3434 114.303 main 541 500 __________P___ -1 14.3434 114.303 4 9 296
1916260N13118 1916 48 WP MM NOT_NAMED 1916-09-16 21:00:00 NR 14.5388 113.912 main 500 491 __________P___ -1 14.5388 113.912 4 8 298
1916260N13118 1916 48 WP MM NOT_NAMED 1916-09-16 22:00:00 NR 14.6000 113.800 main 491 472 __________O___ -1 14.6000 113.800 4 7 301
1916260N13118 1916 48 WP MM NOT_NAMED 1916-09-17 00:00:00 NR 14.7188 113.606 main 472 453 __________P___ -1 14.7188 113.606 4 6 305
1916260N13118 1916 48 WP MM NOT_NAMED 1916-09-17 03:00:00 NR 14.8850 113.385 main 455 437 __________P___ -1 14.8850 113.385 4 5 310
1916260N13118 1916 48 WP MM NOT_NAMED 1916-09-17 06:00:00 NR 15.0340 113.214 main 437 430 __________P___ -1 15.0340 113.214 4 4 311
1916260N13118 1916 48 WP MM NOT_NAMED 1916-09-17 09:00:00 NR 15.1624 113.056 main 433 422 __________P___ -1 15.1624 113.056 4 4 309
1916260N13118 1916 48 WP MM NOT_NAMED 1916-09-17 10:00:00 NR 15.2000 113.000 main 422 412 __________O___ -1 15.2000 113.000 4 5 303
1916260N13118 1916 48 WP MM NOT_NAMED 1916-09-17 12:00:00 NR 15.2828 112.858 main 413 384 __________P___ -1 15.2828 112.858 4 5 298
1916260N13118 1916 48 WP MM NOT_NAMED 1916-09-17 15:00:00 NR 15.3885 112.640 main 384 365 __________P___ -1 15.3885 112.640 4 5 293
1916260N13118 1916 48 WP MM NOT_NAMED 1916-09-17 18:00:00 NR 15.4636 112.413 main 365 344 __________P___ -1 15.4636 112.413 4 5 284
1916260N13118 1916 48 WP MM NOT_NAMED 1916-09-17 21:00:00 NR 15.4988 112.180 main 344 334 __________P___ -1 15.4988 112.180 4 5 277
1916260N13118 1916 48 WP MM NOT_NAMED 1916-09-17 22:00:00 NR 15.5000 112.100 main 334 313 __________O___ -1 15.5000 112.100 4 5 264
1916260N13118 1916 48 WP MM NOT_NAMED 1916-09-18 00:00:00 NR 15.4764 111.939 main 313 290 __________P___ -1 15.4764 111.939 4 5 256
1916260N13118 1916 48 WP MM NOT_NAMED 1916-09-18 03:00:00 NR 15.4029 111.691 main 290 256 __________P___ -1 15.4029 111.691 4 5 251
1916260N13118 1916 48 WP MM NOT_NAMED 1916-09-18 06:00:00 NR 15.3088 111.438 main 256 232 __________P___ -1 15.3088 111.438 4 5 250
1916260N13118 1916 48 WP MM NOT_NAMED 1916-09-18 09:00:00 NR 15.2223 111.184 main 232 222 __________P___ -1 15.2223 111.184 4 5 252
1916260N13118 1916 48 WP MM NOT_NAMED 1916-09-18 10:00:00 NR 15.2000 111.100 main 222 201 __________O___ -1 15.2000 111.100 4 5 259
1916260N13118 1916 48 WP MM NOT_NAMED 1916-09-18 12:00:00 NR 15.1750 110.923 main 201 180 __________P___ -1 15.1750 110.923 4 5 264
1916260N13118 1916 48 WP MM NOT_NAMED 1916-09-18 15:00:00 NR 15.1563 110.657 main 180 150 __________P___ -1 15.1563 110.657 4 5 268
1916260N13118 1916 48 WP MM NOT_NAMED 1916-09-18 18:00:00 NR 15.1601 110.402 main 150 130 __________P___ -1 15.1601 110.402 4 5 274
1916260N13118 1916 48 WP MM NOT_NAMED 1916-09-18 21:00:00 NR 15.1863 110.170 main 130 121 __________P___ -1 15.1863 110.170 4 4 278
1916260N13118 1916 48 WP MM NOT_NAMED 1916-09-18 22:00:00 NR 15.2000 110.100 main 121 111 __________O___ -1 15.2000 110.100 4 4 281
1916260N13118 1916 48 WP MM NOT_NAMED 1916-09-19 00:00:00 NR 15.2249 109.969 main 111 96 __________P___ -1 15.2249 109.969 4 4 286
1916260N13118 1916 48 WP MM NOT_NAMED 1916-09-19 03:00:00 NR 15.2811 109.798 main 96 86 __________P___ -1 15.2811 109.798 4 3 294
1916260N13118 1916 48 WP MM NOT_NAMED 1916-09-19 06:00:00 NR 15.3599 109.655 main 88 68 __________P___ -1 15.3599 109.655 4 3 305
1916260N13118 1916 48 WP MM NOT_NAMED 1916-09-19 09:00:00 NR 15.4612 109.535 main 72 72 __________P___ -1 15.4612 109.535 4 3 313
1916260N13118 1916 48 WP MM NOT_NAMED 1916-09-19 10:00:00 NR 15.5000 109.500 main 72 63 __________O___ -1 15.5000 109.500 4 3 315
1916260N13118 1916 48 WP MM NOT_NAMED 1916-09-19 12:00:00 NR 15.5724 109.422 main 69 69 __________P___ -1 15.5724 109.422 4 3 320
1916260N13118 1916 48 WP MM NOT_NAMED 1916-09-19 15:00:00 NR 15.6996 109.325 main 69 69 __________P___ -1 15.6996 109.325 4 3 330
1916260N13118 1916 48 WP MM NOT_NAMED 1916-09-19 18:00:00 NR 15.8521 109.252 main 85 77 __________P___ -1 15.8521 109.252 4 4 341
1916260N13118 1916 48 WP MM NOT_NAMED 1916-09-19 21:00:00 NR 16.0329 109.208 main 85 85 __________P___ -1 16.0329 109.208 4 4 348
1916260N13118 1916 48 WP MM NOT_NAMED 1916-09-19 22:00:00 NR 16.1000 109.200 main 91 91 __________O___ -1 16.1000 109.200 4 4 0
1916260N13118 1916 48 WP MM NOT_NAMED 1916-09-20 00:00:00 NR 16.2438 109.196 main 96 101 __________P___ -1 16.2438 109.196 4 5 4
1916260N13118 1916 48 WP MM NOT_NAMED 1916-09-20 03:00:00 NR 16.4848 109.216 main 111 111 __________P___ -1 16.4848 109.216 4 5 6
1916260N13118 1916 48 WP MM NOT_NAMED 1916-09-20 06:00:00 NR 16.7449 109.253 main 132 135 __________P___ -1 16.7449 109.253 4 5 7
1916260N13118 1916 48 WP MM NOT_NAMED 1916-09-20 09:00:00 NR 17.0117 109.290 main 135 124 __________P___ -1 17.0117 109.290 4 5 8
1916260N13118 1916 48 WP MM NOT_NAMED 1916-09-20 10:00:00 NR 17.1000 109.300 main 124 102 __________O___ -1 17.1000 109.300 4 5 4
1916260N13118 1916 48 WP MM NOT_NAMED 1916-09-20 12:00:00 NR 17.2614 109.311 main 102 81 __________P___ -1 17.2614 109.311 4 5 1
1916260N13118 1916 48 WP MM NOT_NAMED 1916-09-20 15:00:00 NR 17.5034 109.321 main 81 49 __________P___ -1 17.5034 109.321 4 5 0
1916260N13118 1916 48 WP MM NOT_NAMED 1916-09-20 18:00:00 NR 17.7509 109.321 main 49 30 __________P___ -1 17.7509 109.321 4 5 359
1916260N13118 1916 48 WP MM NOT_NAMED 1916-09-20 21:00:00 NR 18.0100 109.308 main 30 23 __________P___ -1 18.0100 109.308 4 5 358
1916260N13118 1916 48 WP MM NOT_NAMED 1916-09-20 22:00:00 NR 18.1000 109.300 main 23 11 __________O___ -1 18.1000 109.300 4 6 0
1916260N13118 1916 48 WP MM NOT_NAMED 1916-09-21 00:00:00 NR 18.2938 109.289 main 11 0 __________P___ -1 18.2938 109.289 4 6 355
1916260N13118 1916 48 WP MM NOT_NAMED 1916-09-21 03:00:00 NR 18.5972 109.259 main 0 0 __________P___ -1 18.5972 109.259 4 6 352
1916260N13118 1916 48 WP MM NOT_NAMED 1916-09-21 06:00:00 NR 18.9049 109.209 main 0 0 __________P___ -1 18.9049 109.209 4 6 349
1916260N13118 1916 48 WP MM NOT_NAMED 1916-09-21 09:00:00 NR 19.2042 109.132 main 0 0 __________P___ -1 19.2042 109.132 4 6 345
1916260N13118 1916 48 WP MM NOT_NAMED 1916-09-21 10:00:00 NR 19.3000 109.100 main 0 0 __________O___ -1 19.3000 109.100 4 6 339
1916260N13118 1916 48 WP MM NOT_NAMED 1916-09-21 12:00:00 NR 19.4837 109.024 main 0 0 __________P___ -1 19.4837 109.024 4 6 336
1916260N13118 1916 48 WP MM NOT_NAMED 1916-09-21 15:00:00 NR 19.7425 108.886 main 22 30 __________P___ -1 19.7425 108.886 4 6 331
1916260N13118 1916 48 WP MM NOT_NAMED 1916-09-21 18:00:00 NR 19.9866 108.728 main 59 59 __________P___ -1 19.9866 108.728 4 6 327
1916260N13118 1916 48 WP MM NOT_NAMED 1916-09-21 21:00:00 NR 20.2223 108.558 main 84 88 __________P___ -1 20.2223 108.558 4 6 326
1916260N13118 1916 48 WP MM NOT_NAMED 1916-09-21 22:00:00 NR 20.3000 108.500 main 98 __________O___ -1 20.3000 108.500 4 6 323

デジタル台風データ・検索

IBTrACS Databaseについて

本データベースは、米国NOAAが公開する1842年以降の世界の熱帯低気圧のベストトラックデータアーカイブInternational Best Track Archive for Climate Stewardship (IBTrACS)を、ウェブで閲覧しやすい形式に変換したものです。

最終更新日:2021-10-19